Time;durP1;ratioP1;P1;durP2;ratioP2;P2;SDS_P1;SDS_P2;PMS_P1;PMS_P2;Temp;Humidity;BMP_temperature;BMP_pressure;BME280_temperature;BME280_humidity;BME280_pressure;Samples;Min_cycle;Max_cycle;Signal;HPM_P1;HPM_P2
2023/12/02 00:02:42;;;;;;;;;;;;;;;;;;137109;1272;22541;-83
2023/12/02 00:05:43;;;;;;;;;;;;;;;;;;137606;1272;22537;-83
2023/12/02 00:08:46;;;;;;;;;;;;;;;;;;136919;1272;22511;-83
2023/12/02 00:11:47;;;;;;;;;;;;;;;;;;137017;1265;22526;-82
2023/12/02 00:14:49;;;;;;;;;;;;;;;;;;137493;1272;22525;-83
2023/12/02 00:17:50;;;;;;;;;;;;;;;;;;137067;1272;22525;-83
2023/12/02 00:20:51;;;;;;;;;;;;;;;;;;136835;1272;22554;-83
2023/12/02 00:23:52;;;;;;;;;;;;;;;;;;137402;1272;22550;-83
2023/12/02 00:26:53;;;;;;;;;;;;;;;;;;137231;1272;22525;-83
2023/12/02 00:29:54;;;;;;;;;;;;;;;;;;137075;1272;22578;-83
2023/12/02 00:32:55;;;;;;;;;;;;;;;;;;137217;1272;22512;-83
2023/12/02 00:35:56;;;;;;;;;;;;;;;;;;137460;1272;22487;-83
2023/12/02 00:38:57;;;;;;;;;;;;;;;;;;137066;1272;25249;-82
2023/12/02 00:41:59;;;;;;;;;;;;;;;;;;136935;1272;24206;-82
2023/12/02 00:45:00;;;;;;;;;;;;;;;;;;137505;1272;22905;-80
2023/12/02 00:48:01;;;;;;;;;;;;;;;;;;137029;1272;22510;-82
2023/12/02 00:51:02;;;;;;;;;;;;;;;;;;137242;1272;22532;-82
2023/12/02 00:54:03;;;;;;;;;;;;;;;;;;137489;1272;23171;-84
2023/12/02 00:57:04;;;;;;;;;;;;;;;;;;137126;1272;22953;-82
2023/12/02 01:00:05;;;;;;;;;;;;;;;;;;137029;1272;22493;-82
2023/12/02 01:03:07;;;;;;;;;;;;;;;;;;137372;1272;22514;-83
2023/12/02 01:06:08;;;;;;;;;;;;;;;;;;137372;1272;22500;-83
2023/12/02 01:09:09;;;;;;;;;;;;;;;;;;137215;1260;22569;-83
2023/12/02 01:12:10;;;;;;;;;;;;;;;;;;137081;1272;22529;-82
2023/12/02 01:15:11;;;;;;;;;;;;;;;;;;137518;1272;22980;-82
2023/12/02 01:18:12;;;;;;;;;;;;;;;;;;136971;1268;22514;-82
2023/12/02 01:21:14;;;;;;;;;;;;;;;;;;136902;1272;22546;-82
2023/12/02 01:24:15;;;;;;;;;;;;;;;;;;137625;1272;23077;-83
2023/12/02 01:27:16;;;;;;;;;;;;;;;;;;137037;1272;23011;-84
2023/12/02 01:30:17;;;;;;;;;;;;;;;;;;136995;1272;22502;-84
2023/12/02 01:33:18;;;;;;;;;;;;;;;;;;137430;1272;22527;-86
2023/12/02 01:36:19;;;;;;;;;;;;;;;;;;136944;1272;22520;-84
2023/12/02 01:39:21;;;;;;;;;;;;;;;;;;137028;1272;22520;-85
2023/12/02 01:42:22;;;;;;;;;;;;;;;;;;137323;1272;22947;-83
2023/12/02 01:45:23;;;;;;;;;;;;;;;;;;137343;1272;22977;-83
2023/12/02 01:48:24;;;;;;;;;;;;;;;;;;136900;1272;22492;-83
2023/12/02 01:51:25;;;;;;;;;;;;;;;;;;137128;1272;22533;-84
2023/12/02 01:54:26;;;;;;;;;;;;;;;;;;137465;1272;22537;-82
2023/12/02 01:57:28;;;;;;;;;;;;;;;;;;136970;1272;22496;-85
2023/12/02 02:00:29;;;;;;;;;;;;;;;;;;136991;1272;22533;-84
2023/12/02 02:03:30;;;;;;;;;;;;;;;;;;137529;1272;23014;-83
2023/12/02 02:06:31;;;;;;;;;;;;;;;;;;137029;1272;22514;-83
2023/12/02 02:09:32;;;;;;;;;;;;;;;;;;137173;1272;22571;-83
2023/12/02 02:12:33;;;;;;;;;;;;;;;;;;137380;1272;22538;-82
2023/12/02 02:15:34;;;;;;;;;;;;;;;;;;137256;1272;22874;-81
2023/12/02 02:18:36;;;;;;;;;;;;;;;;;;137030;1272;22516;-82
2023/12/02 02:21:37;;;;;;;;;;;;;;;;;;137446;1272;22522;-83
2023/12/02 02:24:38;;;;;;;;;;;;;;;;;;137077;1272;22562;-82
2023/12/02 02:27:40;;;;;;;;;;;;;;;;;;136957;1272;22877;-82
2023/12/02 02:30:41;;;;;;;;;;;;;;;;;;137258;1272;22514;-86
2023/12/02 02:33:42;;;;;;;;;;;;;;;;;;137316;1272;22491;-81
2023/12/02 02:36:43;;;;;;;;;;;;;;;;;;136850;1272;22503;-82
2023/12/02 02:39:44;;;;;;;;;;;;;;;;;;136931;1272;22524;-83
2023/12/02 02:42:46;;;;;;;;;;;;;;;;;;137346;1270;22834;-82
2023/12/02 02:45:47;;;;;;;;;;;;;;;;;;136893;1272;22990;-83
2023/12/02 02:48:48;;;;;;;;;;;;;;;;;;137076;1272;23097;-82
2023/12/02 02:51:49;;;;;;;;;;;;;;;;;;137500;1272;22567;-82
2023/12/02 02:54:50;;;;;;;;;;;;;;;;;;137042;1272;22526;-83
2023/12/02 02:57:52;;;;;;;;;;;;;;;;;;136909;1266;22585;-83
2023/12/02 03:00:53;;;;;;;;;;;;;;;;;;137520;1272;22657;-81
2023/12/02 03:03:54;;;;;;;;;;;;;;;;;;136920;1272;22531;-82
2023/12/02 03:07:00;;;;;;;;;;;;;;;;;;136943;1272;22499;-81
2023/12/02 03:10:01;;;;;;;;;;;;;;;;;;137360;1272;24143;-81
2023/12/02 03:13:02;;;;;;;;;;;;;;;;;;137286;1272;22482;-81
2023/12/02 03:16:03;;;;;;;;;;;;;;;;;;136963;1272;22514;-82
2023/12/02 03:19:04;;;;;;;;;;;;;;;;;;137035;1272;24275;-82
2023/12/02 03:22:09;;;;;;;;;;;;;;;;;;137416;1272;22496;-83
2023/12/02 03:25:11;;;;;;;;;;;;;;;;;;136929;1272;22854;-83
2023/12/02 03:28:12;;;;;;;;;;;;;;;;;;136972;1272;23020;-82
2023/12/02 03:31:13;;;;;;;;;;;;;;;;;;137646;1272;22539;-83
2023/12/02 03:34:15;;;;;;;;;;;;;;;;;;136935;1272;22624;-83
2023/12/02 03:37:16;;;;;;;;;;;;;;;;;;136951;1272;22552;-83
2023/12/02 03:40:17;;;;;;;;;;;;;;;;;;137495;1272;22553;-83
2023/12/02 03:43:18;;;;;;;;;;;;;;;;;;137128;1272;22553;-83
2023/12/02 03:46:19;;;;;;;;;;;;;;;;;;137025;1272;23091;-82
2023/12/02 03:49:21;;;;;;;;;;;;;;;;;;137223;1272;22513;-83
2023/12/02 03:52:22;;;;;;;;;;;;;;;;;;137229;1272;23038;-83
2023/12/02 03:55:24;;;;;;;;;;;;;;;;;;136830;1272;22525;-83
2023/12/02 03:58:27;;;;;;;;;;;;;;;;;;136991;1272;22554;-82
2023/12/02 04:01:28;;;;;;;;;;;;;;;;;;137564;1272;23348;-83
2023/12/02 04:04:29;;;;;;;;;;;;;;;;;;136943;1272;23088;-83
2023/12/02 04:07:30;;;;;;;;;;;;;;;;;;137036;1272;22538;-83
2023/12/02 04:10:31;;;;;;;;;;;;;;;;;;137522;1272;22523;-83
2023/12/02 04:13:33;;;;;;;;;;;;;;;;;;136904;1272;22531;-83
2023/12/02 04:16:34;;;;;;;;;;;;;;;;;;137342;1272;22522;-82
2023/12/02 04:19:35;;;;;;;;;;;;;;;;;;137618;1272;22337;-83
2023/12/02 04:22:36;;;;;;;;;;;;;;;;;;136995;1272;22509;-83
2023/12/02 04:25:37;;;;;;;;;;;;;;;;;;136964;1272;22510;-81
2023/12/02 04:28:38;;;;;;;;;;;;;;;;;;137217;1272;22495;-84
2023/12/02 04:31:39;;;;;;;;;;;;;;;;;;137369;1272;22555;-82
2023/12/02 04:34:40;;;;;;;;;;;;;;;;;;136918;1272;22559;-81
2023/12/02 04:37:41;;;;;;;;;;;;;;;;;;137607;1272;22611;-80
2023/12/02 04:40:43;;;;;;;;;;;;;;;;;;137357;1272;22513;-80
2023/12/02 04:43:44;;;;;;;;;;;;;;;;;;137368;1272;120442;-81
2023/12/02 04:46:46;;;;;;;;;;;;;;;;;;137547;1272;22558;-81
2023/12/02 04:49:47;;;;;;;;;;;;;;;;;;137590;1272;22535;-82
2023/12/02 04:52:48;;;;;;;;;;;;;;;;;;137036;1272;22514;-81
2023/12/02 04:55:52;;;;;;;;;;;;;;;;;;136936;1272;22658;-81
2023/12/02 04:58:53;;;;;;;;;;;;;;;;;;137410;1272;22622;-83
2023/12/02 05:01:55;;;;;;;;;;;;;;;;;;137210;1272;22558;-81
2023/12/02 05:04:56;;;;;;;;;;;;;;;;;;137586;1272;22495;-82
2023/12/02 05:07:57;;;;;;;;;;;;;;;;;;137409;1272;22544;-81
2023/12/02 05:10:58;;;;;;;;;;;;;;;;;;137394;1272;22851;-81
2023/12/02 05:13:59;;;;;;;;;;;;;;;;;;137668;1272;22360;-82
2023/12/02 05:17:00;;;;;;;;;;;;;;;;;;137094;1272;22887;-81
2023/12/02 05:20:02;;;;;;;;;;;;;;;;;;137644;1272;22487;-81
2023/12/02 05:23:06;;;;;;;;;;;;;;;;;;136994;1268;22534;-82
2023/12/02 05:26:07;;;;;;;;;;;;;;;;;;137641;1272;22307;-81
2023/12/02 05:29:08;;;;;;;;;;;;;;;;;;137642;1272;22952;-82
2023/12/02 05:32:09;;;;;;;;;;;;;;;;;;137653;1272;22317;-82
2023/12/02 05:35:11;;;;;;;;;;;;;;;;;;137615;1272;22661;-82
2023/12/02 05:38:12;;;;;;;;;;;;;;;;;;137637;1265;22341;-83
2023/12/02 05:41:13;;;;;;;;;;;;;;;;;;137568;1272;23010;-82
2023/12/02 05:44:14;;;;;;;;;;;;;;;;;;136906;1272;22526;-82
2023/12/02 05:47:16;;;;;;;;;;;;;;;;;;137644;1272;22923;-81
2023/12/02 05:50:17;;;;;;;;;;;;;;;;;;137601;1272;22301;-82
2023/12/02 05:53:19;;;;;;;;;;;;;;;;;;137640;1272;22374;-82
2023/12/02 05:56:21;;;;;;;;;;;;;;;;;;137633;1272;22356;-82
2023/12/02 05:59:22;;;;;;;;;;;;;;;;;;137634;1272;22473;-81
2023/12/02 06:02:24;;;;;;;;;;;;;;;;;;137631;1272;22348;-82
2023/12/02 06:05:25;;;;;;;;;;;;;;;;;;137632;1272;22407;-82
2023/12/02 06:08:27;;;;;;;;;;;;;;;;;;137339;1272;22476;-84
2023/12/02 06:11:28;;;;;;;;;;;;;;;;;;137635;1272;22382;-83
2023/12/02 06:14:30;;;;;;;;;;;;;;;;;;137594;1272;22384;-83
2023/12/02 06:17:44;;;;;;;;;;;;;;;;;;137479;1272;22450;-84
2023/12/02 06:20:48;;;;;;;;;;;;;;;;;;137608;1272;22686;-83
2023/12/02 06:23:50;;;;;;;;;;;;;;;;;;137389;1272;22493;-84
2023/12/02 06:26:51;;;;;;;;;;;;;;;;;;137181;1272;22527;-83
2023/12/02 06:29:53;;;;;;;;;;;;;;;;;;137523;1272;22525;-82
2023/12/02 06:32:54;;;;;;;;;;;;;;;;;;137153;1272;25425;-84
2023/12/02 06:35:55;;;;;;;;;;;;;;;;;;137266;1272;25946;-80
2023/12/02 06:38:57;;;;;;;;;;;;;;;;;;137569;1272;22494;-84
2023/12/02 06:41:58;;;;;;;;;;;;;;;;;;137365;1272;22504;-84
2023/12/02 06:44:59;;;;;;;;;;;;;;;;;;137084;1262;22690;-84
2023/12/02 06:48:01;;;;;;;;;;;;;;;;;;137279;1272;22523;-83
2023/12/02 06:51:02;;;;;;;;;;;;;;;;;;137091;1272;22601;-84
2023/12/02 06:54:04;;;;;;;;;;;;;;;;;;136670;1272;25460;-85
2023/12/02 06:57:05;;;;;;;;;;;;;;;;;;137016;1272;22542;-84
2023/12/02 07:00:10;;;;;;;;;;;;;;;;;;136728;1272;22526;-84
2023/12/02 07:03:11;;;;;;;;;;;;;;;;;;137420;1263;22560;-80
2023/12/02 07:06:12;;;;;;;;;;;;;;;;;;137313;1272;22476;-80
2023/12/02 07:09:14;;;;;;;;;;;;;;;;;;137448;1272;22618;-82
2023/12/02 07:12:20;;;;;;;;;;;;;;;;;;137324;1266;22507;-84
2023/12/02 07:15:21;;;;;;;;;;;;;;;;;;136987;1272;22512;-84
2023/12/02 07:18:22;;;;;;;;;;;;;;;;;;137630;1272;22324;-83
2023/12/02 07:21:24;;;;;;;;;;;;;;;;;;137500;1272;22519;-84
2023/12/02 07:24:28;;;;;;;;;;;;;;;;;;137131;1272;22850;-85
2023/12/02 07:27:29;;;;;;;;;;;;;;;;;;137195;1272;22565;-85
2023/12/02 07:30:31;;;;;;;;;;;;;;;;;;136445;1272;22531;-84
2023/12/02 07:33:35;;;;;;;;;;;;;;;;;;137343;1272;23344;-84
2023/12/02 07:36:43;;;;;;;;;;;;;;;;;;137052;1272;22530;-84
2023/12/02 07:39:45;;;;;;;;;;;;;;;;;;136783;1272;25220;-83
2023/12/02 07:42:50;;;;;;;;;;;;;;;;;;137625;1272;23111;-84
2023/12/02 07:45:51;;;;;;;;;;;;;;;;;;137622;1272;22813;-85
2023/12/02 07:49:02;;;;;;;;;;;;;;;;;;137639;1272;22327;-84
2023/12/02 07:52:04;;;;;;;;;;;;;;;;;;137636;1272;22625;-85
2023/12/02 07:55:08;;;;;;;;;;;;;;;;;;137639;1272;22367;-86
2023/12/02 07:58:28;;;;;;;;;;;;;;;;;;137554;1272;22534;-85
2023/12/02 08:01:35;;;;;;;;;;;;;;;;;;136187;1272;25998;-84
2023/12/02 08:04:36;;;;;;;;;;;;;;;;;;136719;1272;24201;-84
2023/12/02 08:07:38;;;;;;;;;;;;;;;;;;137569;1272;22479;-84
2023/12/02 08:10:41;;;;;;;;;;;;;;;;;;136973;1272;22524;-84
2023/12/02 08:13:47;;;;;;;;;;;;;;;;;;136947;1272;22946;-85
2023/12/02 08:16:53;;;;;;;;;;;;;;;;;;136444;1266;22518;-84
2023/12/02 08:19:59;;;;;;;;;;;;;;;;;;136987;1272;23070;-85
2023/12/02 08:23:01;;;;;;;;;;;;;;;;;;136725;1272;22539;-85
2023/12/02 08:26:05;;;;;;;;;;;;;;;;;;136660;1272;23064;-87
2023/12/02 08:29:06;;;;;;;;;;;;;;;;;;136335;1272;22522;-83
2023/12/02 08:32:12;;;;;;;;;;;;;;;;;;136110;1272;22574;-84
2023/12/02 08:35:14;;;;;;;;;;;;;;;;;;136788;1272;22548;-85
2023/12/02 08:38:15;;;;;;;;;;;;;;;;;;136822;1272;22805;-85
2023/12/02 08:41:16;;;;;;;;;;;;;;;;;;136629;1272;22507;-85
2023/12/02 08:44:18;;;;;;;;;;;;;;;;;;136640;1272;22506;-84
2023/12/02 08:47:19;;;;;;;;;;;;;;;;;;136833;1272;22541;-84
2023/12/02 08:50:21;;;;;;;;;;;;;;;;;;137496;1272;22992;-84
2023/12/02 08:53:22;;;;;;;;;;;;;;;;;;136243;1272;22522;-84
2023/12/02 08:56:29;;;;;;;;;;;;;;;;;;137204;1272;25262;-83
2023/12/02 08:59:30;;;;;;;;;;;;;;;;;;137326;1272;22524;-82
2023/12/02 09:02:32;;;;;;;;;;;;;;;;;;137642;1272;22417;-82
2023/12/02 09:05:33;;;;;;;;;;;;;;;;;;137374;1272;22553;-82
2023/12/02 09:08:34;;;;;;;;;;;;;;;;;;137410;1272;22996;-82
2023/12/02 09:11:36;;;;;;;;;;;;;;;;;;137549;1272;22495;-81
2023/12/02 09:14:37;;;;;;;;;;;;;;;;;;137151;1272;22553;-81
2023/12/02 09:17:38;;;;;;;;;;;;;;;;;;137583;1272;22600;-81
2023/12/02 09:20:39;;;;;;;;;;;;;;;;;;137168;1272;22530;-79
2023/12/02 09:23:41;;;;;;;;;;;;;;;;;;137111;1272;23059;-81
2023/12/02 09:26:42;;;;;;;;;;;;;;;;;;137558;1272;22505;-80
2023/12/02 09:29:43;;;;;;;;;;;;;;;;;;137100;1272;22492;-81
2023/12/02 09:32:47;;;;;;;;;;;;;;;;;;137261;1272;22549;-80
2023/12/02 09:35:48;;;;;;;;;;;;;;;;;;137620;1272;22409;-80
2023/12/02 09:38:49;;;;;;;;;;;;;;;;;;137342;1272;22503;-79
2023/12/02 09:41:50;;;;;;;;;;;;;;;;;;137695;1272;23632;-81
2023/12/02 09:44:51;;;;;;;;;;;;;;;;;;137172;1272;22880;-80
2023/12/02 09:47:52;;;;;;;;;;;;;;;;;;137473;1270;22514;-80
2023/12/02 09:50:54;;;;;;;;;;;;;;;;;;137081;1272;22707;-80
2023/12/02 09:53:55;;;;;;;;;;;;;;;;;;137630;1272;22294;-79
2023/12/02 09:56:56;;;;;;;;;;;;;;;;;;137596;1272;22324;-79
2023/12/02 09:59:57;;;;;;;;;;;;;;;;;;137606;1272;22399;-79
2023/12/02 10:02:58;;;;;;;;;;;;;;;;;;137645;1272;22364;-77
2023/12/02 10:05:59;;;;;;;;;;;;;;;;;;137595;1272;24545;-77
2023/12/02 10:09:00;;;;;;;;;;;;;;;;;;136891;1272;22558;-77
2023/12/02 10:12:02;;;;;;;;;;;;;;;;;;136818;1258;22514;-78
2023/12/02 10:15:05;;;;;;;;;;;;;;;;;;137330;1272;25320;-77
2023/12/02 10:18:06;;;;;;;;;;;;;;;;;;137187;1272;22484;-77
2023/12/02 10:21:07;;;;;;;;;;;;;;;;;;136850;1272;22554;-77
2023/12/02 10:24:08;;;;;;;;;;;;;;;;;;137293;1272;22510;-76
2023/12/02 10:27:09;;;;;;;;;;;;;;;;;;137450;1272;22499;-77
2023/12/02 10:30:11;;;;;;;;;;;;;;;;;;137640;1272;22440;-81
2023/12/02 10:33:12;;;;;;;;;;;;;;;;;;137619;1272;22282;-78
2023/12/02 10:36:13;;;;;;;;;;;;;;;;;;137600;1272;22275;-78
2023/12/02 10:39:14;;;;;;;;;;;;;;;;;;137595;1272;22319;-78
2023/12/02 10:42:15;;;;;;;;;;;;;;;;;;137585;1272;22327;-79
2023/12/02 10:45:17;;;;;;;;;;;;;;;;;;137530;1272;22514;-79
2023/12/02 10:48:19;;;;;;;;;;;;;;;;;;137032;1272;22506;-78
2023/12/02 10:51:20;;;;;;;;;;;;;;;;;;137661;1272;22826;-80
2023/12/02 10:54:23;;;;;;;;;;;;;;;;;;137616;1272;22273;-79
2023/12/02 10:57:25;;;;;;;;;;;;;;;;;;137632;1272;22312;-80
2023/12/02 11:00:26;;;;;;;;;;;;;;;;;;136978;1272;22676;-79
2023/12/02 11:03:27;;;;;;;;;;;;;;;;;;137624;1272;22303;-81
2023/12/02 11:06:29;;;;;;;;;;;;;;;;;;137611;1272;23458;-80
2023/12/02 11:09:30;;;;;;;;;;;;;;;;;;137056;1272;22511;-79
2023/12/02 11:12:31;;;;;;;;;;;;;;;;;;137657;1272;22276;-80
2023/12/02 11:15:32;;;;;;;;;;;;;;;;;;137628;1272;22357;-80
2023/12/02 11:18:33;;;;;;;;;;;;;;;;;;137641;1272;22344;-80
2023/12/02 11:21:34;;;;;;;;;;;;;;;;;;137637;1272;22321;-80
2023/12/02 11:24:35;;;;;;;;;;;;;;;;;;137677;1272;22363;-81
2023/12/02 11:27:37;;;;;;;;;;;;;;;;;;137360;1272;22564;-80
2023/12/02 11:30:38;;;;;;;;;;;;;;;;;;137621;1272;22379;-81
2023/12/02 11:33:39;;;;;;;;;;;;;;;;;;137575;1272;22520;-81
2023/12/02 11:36:40;;;;;;;;;;;;;;;;;;137637;1272;22346;-80
2023/12/02 11:39:41;;;;;;;;;;;;;;;;;;137351;1272;22512;-80
2023/12/02 11:42:42;;;;;;;;;;;;;;;;;;137536;1272;22532;-80
2023/12/02 11:45:44;;;;;;;;;;;;;;;;;;137425;1272;22569;-81
2023/12/02 11:48:45;;;;;;;;;;;;;;;;;;137018;1272;22771;-82
2023/12/02 11:51:46;;;;;;;;;;;;;;;;;;137241;1270;23107;-82
2023/12/02 11:54:47;;;;;;;;;;;;;;;;;;137688;1272;22854;-82
2023/12/02 11:57:48;;;;;;;;;;;;;;;;;;137315;1272;22500;-82
2023/12/02 12:00:50;;;;;;;;;;;;;;;;;;137530;1272;22609;-82
2023/12/02 12:03:51;;;;;;;;;;;;;;;;;;137615;1272;22544;-82
2023/12/02 12:06:52;;;;;;;;;;;;;;;;;;137251;1272;22482;-81
2023/12/02 12:09:53;;;;;;;;;;;;;;;;;;137188;1272;22553;-81
2023/12/02 12:12:54;;;;;;;;;;;;;;;;;;137637;1272;22479;-82
2023/12/02 12:15:55;;;;;;;;;;;;;;;;;;137664;1272;22360;-82
2023/12/02 12:18:58;;;;;;;;;;;;;;;;;;137643;1272;22273;-83
2023/12/02 12:22:00;;;;;;;;;;;;;;;;;;137380;1272;24222;-81
2023/12/02 12:25:01;;;;;;;;;;;;;;;;;;137571;1272;22554;-81
2023/12/02 12:28:02;;;;;;;;;;;;;;;;;;137666;1272;22406;-81
2023/12/02 12:31:03;;;;;;;;;;;;;;;;;;137667;1272;22506;-81
2023/12/02 12:34:04;;;;;;;;;;;;;;;;;;137611;1272;22547;-81
2023/12/02 12:37:05;;;;;;;;;;;;;;;;;;137323;1272;23129;-81
2023/12/02 12:40:06;;;;;;;;;;;;;;;;;;136983;1270;22548;-83
2023/12/02 12:43:08;;;;;;;;;;;;;;;;;;137369;1270;22547;-82
2023/12/02 12:46:09;;;;;;;;;;;;;;;;;;137048;1272;22526;-81
2023/12/02 12:49:10;;;;;;;;;;;;;;;;;;137024;1272;22513;-82
2023/12/02 12:52:11;;;;;;;;;;;;;;;;;;137459;1272;22498;-81
2023/12/02 12:55:12;;;;;;;;;;;;;;;;;;137224;1272;23004;-81
2023/12/02 12:58:14;;;;;;;;;;;;;;;;;;137128;1272;23050;-82
2023/12/02 13:01:15;;;;;;;;;;;;;;;;;;137336;1272;23069;-82
2023/12/02 13:04:16;;;;;;;;;;;;;;;;;;137556;1272;22511;-82
2023/12/02 13:07:17;;;;;;;;;;;;;;;;;;137657;1272;22450;-81
2023/12/02 13:10:18;;;;;;;;;;;;;;;;;;137144;1272;22556;-84
2023/12/02 13:13:19;;;;;;;;;;;;;;;;;;137660;1265;23017;-84
2023/12/02 13:16:20;;;;;;;;;;;;;;;;;;137675;1272;22370;-82
2023/12/02 13:19:21;;;;;;;;;;;;;;;;;;137643;1272;22850;-82
2023/12/02 13:22:22;;;;;;;;;;;;;;;;;;137635;1272;22849;-82
2023/12/02 13:25:24;;;;;;;;;;;;;;;;;;137657;1272;22277;-83
2023/12/02 13:28:27;;;;;;;;;;;;;;;;;;137654;1272;22832;-83
2023/12/02 13:31:28;;;;;;;;;;;;;;;;;;137647;1272;22371;-82
2023/12/02 13:34:31;;;;;;;;;;;;;;;;;;137675;1272;22728;-82
2023/12/02 13:37:32;;;;;;;;;;;;;;;;;;137236;1272;22510;-83
2023/12/02 13:40:33;;;;;;;;;;;;;;;;;;137504;1272;22579;-82
2023/12/02 13:43:34;;;;;;;;;;;;;;;;;;137292;1272;23349;-82
2023/12/02 13:46:35;;;;;;;;;;;;;;;;;;136976;1272;22970;-81
2023/12/02 13:49:37;;;;;;;;;;;;;;;;;;137510;1272;22479;-81
2023/12/02 13:52:38;;;;;;;;;;;;;;;;;;137367;1272;22964;-81
2023/12/02 13:55:39;;;;;;;;;;;;;;;;;;137083;1272;22549;-81
2023/12/02 13:58:41;;;;;;;;;;;;;;;;;;137233;1272;22541;-80
2023/12/02 14:01:42;;;;;;;;;;;;;;;;;;137451;1272;22534;-81
2023/12/02 14:04:44;;;;;;;;;;;;;;;;;;136950;1272;23047;-82
2023/12/02 14:07:45;;;;;;;;;;;;;;;;;;137018;1272;22591;-82
2023/12/02 14:10:46;;;;;;;;;;;;;;;;;;137384;1272;22526;-82
2023/12/02 14:13:47;;;;;;;;;;;;;;;;;;136965;1272;22534;-83
2023/12/02 14:16:48;;;;;;;;;;;;;;;;;;137087;1272;22545;-82
2023/12/02 14:19:50;;;;;;;;;;;;;;;;;;137671;1272;22335;-80
2023/12/02 14:22:51;;;;;;;;;;;;;;;;;;137334;1272;22563;-79
2023/12/02 14:25:52;;;;;;;;;;;;;;;;;;137113;1272;22549;-80
2023/12/02 14:28:53;;;;;;;;;;;;;;;;;;137357;1272;24512;-82
2023/12/02 14:31:54;;;;;;;;;;;;;;;;;;137181;1272;22507;-82
2023/12/02 14:34:55;;;;;;;;;;;;;;;;;;136948;1272;22492;-83
2023/12/02 14:37:56;;;;;;;;;;;;;;;;;;137252;1272;24242;-84
2023/12/02 14:40:57;;;;;;;;;;;;;;;;;;137363;1270;22958;-82
2023/12/02 14:43:59;;;;;;;;;;;;;;;;;;137283;1272;22612;-83
2023/12/02 14:47:00;;;;;;;;;;;;;;;;;;137088;1272;22505;-83
2023/12/02 14:50:03;;;;;;;;;;;;;;;;;;137521;1272;22697;-80
2023/12/02 14:53:04;;;;;;;;;;;;;;;;;;136901;1272;22516;-81
2023/12/02 14:56:06;;;;;;;;;;;;;;;;;;136974;1272;22705;-83
2023/12/02 14:59:07;;;;;;;;;;;;;;;;;;137520;1272;22428;-81
2023/12/02 15:02:08;;;;;;;;;;;;;;;;;;136918;1272;22513;-81
2023/12/02 15:05:09;;;;;;;;;;;;;;;;;;136971;1272;22533;-82
2023/12/02 15:08:10;;;;;;;;;;;;;;;;;;137594;1272;22504;-82
2023/12/02 15:11:11;;;;;;;;;;;;;;;;;;136924;1272;22576;-82
2023/12/02 15:14:12;;;;;;;;;;;;;;;;;;137072;1257;22508;-83
2023/12/02 15:17:13;;;;;;;;;;;;;;;;;;137466;1272;22533;-83
2023/12/02 15:20:14;;;;;;;;;;;;;;;;;;137202;1272;22561;-83
2023/12/02 15:23:15;;;;;;;;;;;;;;;;;;137302;1272;23053;-83
2023/12/02 15:26:17;;;;;;;;;;;;;;;;;;137218;1272;22625;-82
2023/12/02 15:29:18;;;;;;;;;;;;;;;;;;137419;1272;22580;-84
2023/12/02 15:32:19;;;;;;;;;;;;;;;;;;137126;1272;22963;-84
2023/12/02 15:35:20;;;;;;;;;;;;;;;;;;137043;1272;22523;-83
2023/12/02 15:38:21;;;;;;;;;;;;;;;;;;137354;1272;22573;-84
2023/12/02 15:41:23;;;;;;;;;;;;;;;;;;136888;1272;22506;-83
2023/12/02 15:44:24;;;;;;;;;;;;;;;;;;136931;1272;22596;-83
2023/12/02 15:47:25;;;;;;;;;;;;;;;;;;137485;1272;23013;-81
2023/12/02 15:50:26;;;;;;;;;;;;;;;;;;137336;1272;22643;-82
2023/12/02 15:53:27;;;;;;;;;;;;;;;;;;137173;1267;23182;-83
2023/12/02 15:56:30;;;;;;;;;;;;;;;;;;137688;1272;22302;-83
2023/12/02 15:59:31;;;;;;;;;;;;;;;;;;137203;1272;23164;-83
2023/12/02 16:02:33;;;;;;;;;;;;;;;;;;137197;1272;22542;-83
2023/12/02 16:05:34;;;;;;;;;;;;;;;;;;137667;1272;22501;-84
2023/12/02 16:08:36;;;;;;;;;;;;;;;;;;137135;1272;22498;-82
2023/12/02 16:11:38;;;;;;;;;;;;;;;;;;136898;1268;22599;-83
2023/12/02 16:14:39;;;;;;;;;;;;;;;;;;137436;1272;22514;-85
2023/12/02 16:17:40;;;;;;;;;;;;;;;;;;137113;1272;22929;-83
2023/12/02 16:20:41;;;;;;;;;;;;;;;;;;136975;1272;22506;-83
2023/12/02 16:23:42;;;;;;;;;;;;;;;;;;137181;1272;22534;-84
2023/12/02 16:26:44;;;;;;;;;;;;;;;;;;137412;1272;22551;-84
2023/12/02 16:29:45;;;;;;;;;;;;;;;;;;137009;1272;22523;-83
2023/12/02 16:32:47;;;;;;;;;;;;;;;;;;136919;1272;22554;-83
2023/12/02 16:35:48;;;;;;;;;;;;;;;;;;137669;1272;22493;-81
2023/12/02 16:38:49;;;;;;;;;;;;;;;;;;136928;1268;22540;-81
2023/12/02 16:41:50;;;;;;;;;;;;;;;;;;137077;1272;22567;-81
2023/12/02 16:44:51;;;;;;;;;;;;;;;;;;137440;1272;132680;-82
2023/12/02 16:47:55;;;;;;;;;;;;;;;;;;136928;1272;22515;-82
2023/12/02 16:50:56;;;;;;;;;;;;;;;;;;136797;1272;22633;-85
2023/12/02 16:53:57;;;;;;;;;;;;;;;;;;137452;1272;22550;-83
2023/12/02 16:56:58;;;;;;;;;;;;;;;;;;137215;1272;22630;-83
2023/12/02 16:59:59;;;;;;;;;;;;;;;;;;137235;1272;22532;-83
2023/12/02 17:03:00;;;;;;;;;;;;;;;;;;137305;1272;22607;-83
2023/12/02 17:06:02;;;;;;;;;;;;;;;;;;137360;1272;22585;-84
2023/12/02 17:09:03;;;;;;;;;;;;;;;;;;137066;1272;22484;-83
2023/12/02 17:12:04;;;;;;;;;;;;;;;;;;137170;1272;22525;-83
2023/12/02 17:15:06;;;;;;;;;;;;;;;;;;137506;1272;22879;-84
2023/12/02 17:18:07;;;;;;;;;;;;;;;;;;137400;1272;22517;-83
2023/12/02 17:21:08;;;;;;;;;;;;;;;;;;137296;1272;22525;-83
2023/12/02 17:24:09;;;;;;;;;;;;;;;;;;137643;1272;22698;-83
2023/12/02 17:27:10;;;;;;;;;;;;;;;;;;137062;1272;22505;-84
2023/12/02 17:30:12;;;;;;;;;;;;;;;;;;137568;1272;22401;-84
2023/12/02 17:33:13;;;;;;;;;;;;;;;;;;137636;1272;22576;-83
2023/12/02 17:36:14;;;;;;;;;;;;;;;;;;136961;1272;22941;-83
2023/12/02 17:39:15;;;;;;;;;;;;;;;;;;137029;1272;22544;-83
2023/12/02 17:42:16;;;;;;;;;;;;;;;;;;137511;1272;22518;-83
2023/12/02 17:45:17;;;;;;;;;;;;;;;;;;137175;1272;22503;-83
2023/12/02 17:48:18;;;;;;;;;;;;;;;;;;136929;1272;22509;-82
2023/12/02 17:51:19;;;;;;;;;;;;;;;;;;137030;1272;25223;-82
2023/12/02 17:54:21;;;;;;;;;;;;;;;;;;137496;1258;22512;-83
2023/12/02 17:57:22;;;;;;;;;;;;;;;;;;136969;1272;22495;-83
2023/12/02 18:00:23;;;;;;;;;;;;;;;;;;136991;1272;23026;-81
2023/12/02 18:03:24;;;;;;;;;;;;;;;;;;137646;1272;22943;-81
2023/12/02 18:06:26;;;;;;;;;;;;;;;;;;137204;1272;22536;-82
2023/12/02 18:09:27;;;;;;;;;;;;;;;;;;137397;1272;22540;-82
2023/12/02 18:12:29;;;;;;;;;;;;;;;;;;137519;1272;22569;-83
2023/12/02 18:15:31;;;;;;;;;;;;;;;;;;137175;1272;22958;-82
2023/12/02 18:18:32;;;;;;;;;;;;;;;;;;136946;1272;24294;-82
2023/12/02 18:21:33;;;;;;;;;;;;;;;;;;137347;1272;22508;-83
2023/12/02 18:24:41;;;;;;;;;;;;;;;;;;137209;1272;23111;-83
2023/12/02 18:27:42;;;;;;;;;;;;;;;;;;136984;1272;22506;-82
2023/12/02 18:30:44;;;;;;;;;;;;;;;;;;137289;1272;22536;-83
2023/12/02 18:33:45;;;;;;;;;;;;;;;;;;137506;1272;22503;-82
2023/12/02 18:36:46;;;;;;;;;;;;;;;;;;137384;1272;22496;-83
2023/12/02 18:39:47;;;;;;;;;;;;;;;;;;137135;1272;22596;-83
2023/12/02 18:42:48;;;;;;;;;;;;;;;;;;137620;1272;22292;-83
2023/12/02 18:45:49;;;;;;;;;;;;;;;;;;137185;1272;22508;-83
2023/12/02 18:48:51;;;;;;;;;;;;;;;;;;136971;1272;22618;-83
2023/12/02 18:51:52;;;;;;;;;;;;;;;;;;137409;1272;22515;-85
2023/12/02 18:54:53;;;;;;;;;;;;;;;;;;137026;1268;23052;-84
2023/12/02 18:57:54;;;;;;;;;;;;;;;;;;136842;1272;22473;-83
2023/12/02 19:00:55;;;;;;;;;;;;;;;;;;137288;1272;22459;-84
2023/12/02 19:03:57;;;;;;;;;;;;;;;;;;137216;1272;22572;-83
2023/12/02 19:06:58;;;;;;;;;;;;;;;;;;136870;1272;22544;-83
2023/12/02 19:10:00;;;;;;;;;;;;;;;;;;137117;1272;22624;-87
2023/12/02 19:13:01;;;;;;;;;;;;;;;;;;137319;1272;22693;-85
2023/12/02 19:16:02;;;;;;;;;;;;;;;;;;137033;1272;22527;-84
2023/12/02 19:19:03;;;;;;;;;;;;;;;;;;137122;1272;24139;-83
2023/12/02 19:22:05;;;;;;;;;;;;;;;;;;137663;1272;22506;-83
2023/12/02 19:25:06;;;;;;;;;;;;;;;;;;137134;1272;22520;-83
2023/12/02 19:28:07;;;;;;;;;;;;;;;;;;137151;1272;22528;-85
2023/12/02 19:31:09;;;;;;;;;;;;;;;;;;137694;1268;23082;-85
2023/12/02 19:34:11;;;;;;;;;;;;;;;;;;136974;1272;22510;-85
2023/12/02 19:37:12;;;;;;;;;;;;;;;;;;136759;1272;22566;-84
2023/12/02 19:40:13;;;;;;;;;;;;;;;;;;137467;1266;22530;-84
2023/12/02 19:43:14;;;;;;;;;;;;;;;;;;136951;1272;22565;-83
2023/12/02 19:46:15;;;;;;;;;;;;;;;;;;136886;1272;22546;-83
2023/12/02 19:49:16;;;;;;;;;;;;;;;;;;137384;1272;25159;-84
2023/12/02 19:52:19;;;;;;;;;;;;;;;;;;137308;1272;22520;-82
2023/12/02 19:55:21;;;;;;;;;;;;;;;;;;136814;1272;22512;-82
2023/12/02 19:58:22;;;;;;;;;;;;;;;;;;137001;1272;22683;-83
2023/12/02 20:01:24;;;;;;;;;;;;;;;;;;137486;1272;22546;-83
2023/12/02 20:04:25;;;;;;;;;;;;;;;;;;136946;1272;22508;-83
2023/12/02 20:07:26;;;;;;;;;;;;;;;;;;136970;1272;23817;-82
2023/12/02 20:10:27;;;;;;;;;;;;;;;;;;137701;1272;22341;-83
2023/12/02 20:13:29;;;;;;;;;;;;;;;;;;136897;1272;22513;-83
2023/12/02 20:16:30;;;;;;;;;;;;;;;;;;136930;1272;22988;-83
2023/12/02 20:19:31;;;;;;;;;;;;;;;;;;137375;1272;22534;-83